Time;durP1;ratioP1;P1;durP2;ratioP2;P2;SDS_P1;SDS_P2;PMS_P1;PMS_P2;Temp;Humidity;BMP_temperature;BMP_pressure;BME280_temperature;BME280_humidity;BME280_pressure;Samples;Min_cycle;Max_cycle;Signal;HPM_P1;HPM_P2
2022/09/21 00:00:42;;;;;;;8.90;6.80;;;12.00;99.90;;;;;;4974842;28;20508;-50
2022/09/21 00:03:08;;;;;;;15.93;10.23;;;11.90;99.90;;;;;;4975153;28;20126;-50
2022/09/21 00:05:34;;;;;;;18.20;14.35;;;11.90;99.90;;;;;;4975202;28;20047;-50
2022/09/21 00:08:04;;;;;;;20.70;14.90;;;11.80;99.90;;;;;;4974879;28;20042;-50
2022/09/21 00:10:31;;;;;;;13.98;10.50;;;;;;;;;;4974771;28;20078;-51
2022/09/21 00:12:58;;;;;;;11.88;6.82;;;11.90;99.90;;;;;;4974580;28;20051;-50
2022/09/21 00:15:24;;;;;;;20.38;15.15;;;;;;;;;;4969848;28;20034;-50
2022/09/21 00:17:55;;;;;;;31.27;24.02;;;;;;;;;;5007230;28;20042;-50
2022/09/21 00:20:22;;;;;;;31.20;22.48;;;;;;;;;;5013188;28;20133;-50
2022/09/21 00:22:48;;;;;;;23.98;19.20;;;;;;;;;;5049046;28;20064;-50
2022/09/21 00:25:14;;;;;;;26.38;22.08;;;;;;;;;;5049972;28;20033;-49
2022/09/21 00:27:41;;;;;;;19.63;16.08;;;;;;;;;;5044545;28;20071;-49
2022/09/21 00:30:07;;;;;;;7.93;6.47;;;;;;;;;;5055123;28;20033;-50
2022/09/21 00:32:34;;;;;;;7.28;5.32;;;;;;;;;;5052475;28;20396;-50
2022/09/21 00:35:01;;;;;;;4.05;3.20;;;;;;;;;;5049692;28;20049;-50
2022/09/21 00:37:28;;;;;;;4.65;3.22;;;12.00;99.90;;;;;;5053755;28;20033;-49
2022/09/21 00:39:54;;;;;;;5.05;2.72;;;12.00;99.90;;;;;;5054090;28;20052;-49
2022/09/21 00:42:24;;;;;;;4.22;2.88;;;11.90;99.90;;;;;;5055116;28;20112;-49
2022/09/21 00:44:49;;;;;;;4.78;2.60;;;11.90;99.90;;;;;;5036462;28;20040;-49
2022/09/21 00:47:20;;;;;;;4.93;2.40;;;11.90;99.90;;;;;;5070126;28;20029;-49
2022/09/21 00:49:50;;;;;;;3.45;3.03;;;11.90;99.90;;;;;;5054991;28;20420;-48
2022/09/21 00:52:18;;;;;;;3.20;2.30;;;11.70;99.90;;;;;;5055178;28;20029;-49
2022/09/21 00:55:03;;;;;;;4.18;2.78;;;11.70;99.90;;;;;;5054871;28;20388;-49
2022/09/21 00:57:30;;;;;;;4.40;3.47;;;11.60;99.90;;;;;;5055113;28;20025;-49
2022/09/21 02:55:17;;;;;;;3.75;2.50;;;11.10;99.90;;;;;;5033914;28;20563;-49
2022/09/21 02:57:46;;;;;;;3.47;2.00;;;11.10;99.90;;;;;;5057151;28;20052;-49
2022/09/21 03:00:14;;;;;;;2.60;2.00;;;11.00;99.90;;;;;;5056942;28;20087;-49
2022/09/21 03:02:42;;;;;;;3.30;2.10;;;11.00;99.90;;;;;;5038890;28;20695;-49
2022/09/21 03:05:09;;;;;;;3.08;1.70;;;11.10;99.90;;;;;;5057063;28;20029;-49
2022/09/21 03:07:35;;;;;;;2.15;1.55;;;11.10;99.90;;;;;;5057371;28;20075;-49
2022/09/21 03:10:01;;;;;;;2.83;1.95;;;11.10;99.90;;;;;;5057072;28;20476;-49
2022/09/21 03:12:26;;;;;;;3.38;1.52;;;11.00;99.90;;;;;;5056954;28;20063;-49
2022/09/21 03:14:52;;;;;;;2.17;1.60;;;11.00;99.90;;;;;;5056983;28;20029;-49
2022/09/21 03:17:18;;;;;;;2.17;1.77;;;11.10;99.90;;;;;;5038235;28;20056;-49
2022/09/21 03:19:44;;;;;;;2.42;1.90;;;11.10;99.90;;;;;;5056751;28;20484;-51
2022/09/21 03:22:10;;;;;;;4.20;2.08;;;11.10;99.90;;;;;;5057108;28;20071;-50
2022/09/21 03:24:45;;;;;;;2.38;1.70;;;11.10;99.90;;;;;;5056618;28;20032;-50
2022/09/21 03:27:11;;;;;;;2.50;1.90;;;11.20;99.90;;;;;;5056714;28;20051;-48
2022/09/21 03:29:37;;;;;;;3.38;1.90;;;11.30;99.90;;;;;;5056945;28;20033;-48
2022/09/21 03:32:03;;;;;;;3.47;2.10;;;11.20;99.90;;;;;;5056539;28;20021;-49
2022/09/21 03:34:33;;;;;;;4.00;1.80;;;11.30;99.90;;;;;;5037682;28;20479;-49
2022/09/21 03:36:59;;;;;;;4.63;2.45;;;11.30;99.90;;;;;;5056894;28;20033;-49
2022/09/21 03:39:25;;;;;;;2.22;1.67;;;11.30;99.90;;;;;;5056506;28;20071;-54
2022/09/21 03:41:51;;;;;;;2.47;2.00;;;11.30;99.90;;;;;;5056136;28;20025;-50
2022/09/21 03:44:17;;;;;;;3.22;1.98;;;11.30;99.90;;;;;;5056530;28;20032;-50
2022/09/21 03:46:43;;;;;;;2.53;1.50;;;11.30;99.90;;;;;;5037982;28;20502;-56
2022/09/21 03:49:09;;;;;;;2.53;1.83;;;11.30;99.90;;;;;;5056214;28;20365;-50
2022/09/21 03:51:34;;;;;;;3.55;1.83;;;11.40;99.90;;;;;;5055941;28;20028;-51
2022/09/21 03:54:00;;;;;;;3.13;1.77;;;11.40;99.90;;;;;;5056348;28;20053;-50
2022/09/21 03:56:26;;;;;;;5.72;2.00;;;11.40;99.90;;;;;;5055858;28;20412;-50
2022/09/21 03:58:52;;;;;;;2.47;1.83;;;11.40;99.90;;;;;;5055982;28;20417;-50
2022/09/21 04:01:17;;;;;;;3.95;1.88;;;11.40;99.90;;;;;;5055832;28;20037;-50
2022/09/21 04:03:43;;;;;;;2.78;1.85;;;11.40;99.90;;;;;;5054771;28;20025;-50
2022/09/21 04:06:10;;;;;;;5.55;1.85;;;11.40;99.90;;;;;;5054963;28;20104;-50
2022/09/21 04:08:36;;;;;;;3.63;1.90;;;11.40;99.90;;;;;;5053753;28;20041;-50
2022/09/21 04:11:10;;;;;;;2.97;1.77;;;11.40;99.90;;;;;;5048749;28;20029;-50
2022/09/21 04:13:36;;;;;;;2.30;1.90;;;11.30;99.90;;;;;;5050813;28;20120;-49
2022/09/21 04:16:02;;;;;;;2.78;1.63;;;11.30;99.90;;;;;;5017428;28;20116;-49
2022/09/21 04:18:28;;;;;;;4.90;2.50;;;11.30;99.90;;;;;;5045767;28;20541;-50
2022/09/21 04:20:54;;;;;;;3.83;2.00;;;11.40;99.90;;;;;;5048580;28;20124;-50
2022/09/21 04:23:20;;;;;;;8.25;1.98;;;11.40;99.90;;;;;;5044213;28;20052;-49
2022/09/21 04:25:50;;;;;;;3.50;2.00;;;11.40;99.90;;;;;;5052386;28;20059;-49
2022/09/21 04:28:16;;;;;;;2.47;1.70;;;11.50;99.90;;;;;;5054441;28;20082;-49
2022/09/21 04:30:42;;;;;;;3.00;1.95;;;11.40;99.90;;;;;;5054527;28;20024;-49
2022/09/21 04:33:07;;;;;;;3.35;2.10;;;11.50;99.90;;;;;;5049444;28;20526;-50
2022/09/21 04:35:33;;;;;;;4.50;1.90;;;11.60;99.90;;;;;;5053284;28;20112;-49
2022/09/21 04:37:59;;;;;;;4.22;1.73;;;11.60;99.90;;;;;;5043625;28;20044;-49
2022/09/21 04:40:25;;;;;;;3.33;1.67;;;11.50;99.90;;;;;;5023497;28;20147;-50
2022/09/21 04:42:54;;;;;;;3.45;1.90;;;11.50;99.90;;;;;;5039061;28;20038;-49
2022/09/21 04:45:21;;;;;;;22.27;3.50;;;11.60;99.90;;;;;;5049496;28;20025;-50
2022/09/21 04:47:47;;;;;;;4.72;1.92;;;11.50;99.90;;;;;;5047110;28;20033;-49
2022/09/21 04:50:13;;;;;;;3.50;1.70;;;11.50;99.90;;;;;;5050076;28;20051;-49
2022/09/21 04:52:39;;;;;;;4.13;1.90;;;11.50;99.90;;;;;;5050296;28;20052;-50
2022/09/21 04:55:06;;;;;;;2.35;1.50;;;11.60;99.90;;;;;;5048469;28;20033;-49
2022/09/21 04:57:32;;;;;;;5.28;2.00;;;11.60;99.90;;;;;;5048778;28;20045;-50
2022/09/21 04:59:58;;;;;;;5.65;1.95;;;11.70;99.90;;;;;;5053904;28;20432;-50
2022/09/21 05:02:23;;;;;;;4.88;1.90;;;11.60;99.90;;;;;;5035568;28;20060;-56
2022/09/21 05:04:49;;;;;;;4.10;1.85;;;11.70;99.90;;;;;;5048818;28;20025;-55
2022/09/21 05:07:15;;;;;;;3.42;1.80;;;11.60;99.90;;;;;;5052436;28;20029;-52
2022/09/21 05:12:25;;;;;;;5.25;1.60;;;11.70;99.90;;;;;;5034692;28;20126;-52
2022/09/21 05:14:51;;;;;;;3.03;1.60;;;11.70;99.90;;;;;;5040400;28;20044;-48
2022/09/21 05:17:21;;;;;;;2.97;1.73;;;11.80;99.90;;;;;;5049434;28;20040;-51
2022/09/21 05:19:50;;;;;;;4.38;1.70;;;11.80;99.90;;;;;;5034293;28;20037;-51
2022/09/21 05:22:16;;;;;;;2.00;1.48;;;11.80;99.90;;;;;;5043023;28;20036;-51
2022/09/21 05:24:42;;;;;;;3.15;1.70;;;11.80;99.90;;;;;;5044334;28;20025;-52
2022/09/21 05:27:08;;;;;;;3.97;1.80;;;11.90;99.90;;;;;;5039988;28;20397;-51
2022/09/21 05:29:34;;;;;;;1.90;1.63;;;11.90;99.90;;;;;;5045203;28;20032;-51
2022/09/21 05:32:27;;;;;;;3.78;1.50;;;11.90;99.90;;;;;;5046378;28;20036;-51
2022/09/21 05:35:11;;;;;;;2.53;2.03;;;11.90;99.90;;;;;;5050264;28;20036;-52
2022/09/21 05:37:57;;;;;;;3.13;1.63;;;12.00;99.90;;;;;;5051293;28;20357;-52
2022/09/21 05:40:23;;;;;;;4.50;1.77;;;11.90;99.90;;;;;;5046365;28;20115;-52
2022/09/21 05:42:50;;;;;;;3.42;1.40;;;11.90;99.90;;;;;;5051399;28;20120;-52
2022/09/21 05:45:17;;;;;;;5.20;1.60;;;11.90;99.90;;;;;;5055528;28;20041;-52
2022/09/21 05:48:04;;;;;;;2.53;1.50;;;11.90;99.90;;;;;;5074413;28;20103;-52
2022/09/21 05:50:45;;;;;;;3.80;1.90;;;11.90;99.90;;;;;;5073795;28;20025;-52
2022/09/21 05:53:35;;;;;;;2.65;1.60;;;11.90;99.90;;;;;;5074079;28;20353;-52
2022/09/21 05:56:21;;;;;;;3.67;1.73;;;11.90;99.90;;;;;;5073302;28;20155;-52
2022/09/21 05:59:11;;;;;;;4.95;2.17;;;12.00;99.90;;;;;;5072270;28;20036;-52
2022/09/21 06:02:08;;;;;;;5.25;2.75;;;11.90;99.90;;;;;;5073927;28;20028;-53
2022/09/21 06:04:33;;;;;;;6.32;3.20;;;12.00;99.90;;;;;;5073759;28;20384;-52
2022/09/21 06:06:59;;;;;;;7.07;3.08;;;11.80;99.90;;;;;;5073698;28;20025;-52
2022/09/21 06:09:26;;;;;;;3.95;2.50;;;11.80;99.90;;;;;;5073914;28;20032;-52
2022/09/21 06:11:52;;;;;;;3.85;1.90;;;11.80;99.90;;;;;;5073785;28;20039;-52
2022/09/21 06:14:24;;;;;;;5.22;1.77;;;11.90;99.90;;;;;;5073611;28;20024;-51
2022/09/21 06:16:50;;;;;;;2.85;1.70;;;11.80;99.90;;;;;;5073640;28;20036;-52
2022/09/21 06:19:16;;;;;;;4.97;1.70;;;11.90;99.90;;;;;;5073818;28;20524;-52
2022/09/21 06:21:42;;;;;;;3.92;1.50;;;11.80;99.90;;;;;;5073428;28;20131;-51
2022/09/21 06:24:08;;;;;;;3.10;1.70;;;11.80;99.90;;;;;;5074076;28;20111;-51
2022/09/21 06:26:34;;;;;;;1.73;1.48;;;11.80;99.90;;;;;;5073039;28;20056;-52
2022/09/21 06:29:00;;;;;;;2.80;1.75;;;11.80;99.90;;;;;;5073405;28;20052;-52
2022/09/21 06:31:26;;;;;;;2.20;1.50;;;11.90;99.90;;;;;;5073531;28;20494;-52
2022/09/21 06:33:52;;;;;;;2.88;1.40;;;12.00;99.90;;;;;;5073670;28;20364;-52
2022/09/21 06:36:17;;;;;;;3.45;1.60;;;12.10;99.90;;;;;;5073150;28;20028;-52
2022/09/21 06:38:43;;;;;;;2.80;1.70;;;12.10;99.90;;;;;;5088394;28;20438;-52
2022/09/21 06:41:09;;;;;;;3.05;1.63;;;12.00;99.90;;;;;;5073415;28;20041;-52
2022/09/21 06:43:35;;;;;;;1.25;1.02;;;12.20;99.90;;;;;;5073454;28;20407;-51
2022/09/21 06:46:02;;;;;;;2.30;2.10;;;12.20;99.90;;;;;;5073171;28;20047;-52
2022/09/21 06:48:29;;;;;;;3.35;2.25;;;12.30;99.90;;;;;;5073264;28;20020;-52
2022/09/21 06:51:00;;;;;;;1.90;1.40;;;12.20;99.90;;;;;;5071292;28;20036;-51
2022/09/21 06:53:27;;;;;;;3.25;2.40;;;12.30;99.90;;;;;;5073563;28;20025;-52
2022/09/21 06:55:53;;;;;;;4.25;1.98;;;12.30;99.90;;;;;;5072973;28;20123;-52
2022/09/21 06:58:19;;;;;;;2.55;1.80;;;12.30;99.90;;;;;;5073099;28;20075;-52
2022/09/21 07:00:45;;;;;;;4.70;1.98;;;12.30;99.90;;;;;;5088357;28;20049;-52
2022/09/21 07:03:14;;;;;;;2.78;1.77;;;12.30;99.90;;;;;;5072929;28;20028;-52
2022/09/21 07:05:44;;;;;;;3.03;2.00;;;12.30;99.90;;;;;;5073310;28;20486;-52
2022/09/21 07:08:09;;;;;;;2.33;1.40;;;12.40;99.90;;;;;;5073073;28;20025;-52
2022/09/21 07:10:35;;;;;;;4.18;2.33;;;12.40;99.90;;;;;;5073397;28;20490;-52
2022/09/21 07:13:04;;;;;;;3.28;2.25;;;12.40;99.90;;;;;;5073121;28;20483;-52
2022/09/21 07:15:31;;;;;;;9.32;2.97;;;12.50;99.90;;;;;;5072962;28;20078;-51
2022/09/21 07:17:57;;;;;;;3.85;2.35;;;12.40;99.90;;;;;;5073005;28;20038;-51
2022/09/21 07:20:23;;;;;;;2.50;1.70;;;12.50;99.90;;;;;;5070849;28;20041;-51
2022/09/21 07:22:49;;;;;;;2.55;2.00;;;12.50;99.90;;;;;;5073138;28;20035;-52
2022/09/21 07:25:15;;;;;;;5.95;2.72;;;12.70;99.90;;;;;;5037868;28;20051;-52
2022/09/21 07:27:41;;;;;;;3.63;2.20;;;12.90;99.90;;;;;;5072764;28;20029;-51
2022/09/21 07:30:07;;;;;;;6.93;3.25;;;12.80;99.90;;;;;;5071158;28;20029;-52
2022/09/21 07:32:33;;;;;;;3.78;2.13;;;13.00;99.90;;;;;;5054459;28;20446;-52
2022/09/21 07:34:59;;;;;;;2.83;1.52;;;13.00;99.90;;;;;;5037386;28;20036;-51
2022/09/21 07:37:26;;;;;;;3.42;2.05;;;12.80;99.90;;;;;;5072523;28;20036;-51
2022/09/21 07:39:52;;;;;;;4.40;2.40;;;12.80;99.90;;;;;;5074533;28;20039;-51
2022/09/21 07:42:20;;;;;;;3.60;2.38;;;12.40;99.90;;;;;;5076411;28;20099;-51
2022/09/21 07:44:46;;;;;;;3.47;2.15;;;12.60;99.90;;;;;;5076106;28;20024;-52
2022/09/21 07:47:13;;;;;;;4.55;2.00;;;12.70;99.90;;;;;;5076245;28;20027;-52
2022/09/21 07:49:40;;;;;;;3.85;2.30;;;13.00;99.90;;;;;;5076347;28;20082;-52
2022/09/21 07:52:07;;;;;;;3.80;2.50;;;13.20;99.90;;;;;;5076150;28;20104;-52
2022/09/21 07:54:34;;;;;;;3.22;2.15;;;13.30;99.90;;;;;;5076130;28;20033;-52
2022/09/21 07:59:44;;;;;;;5.03;3.05;;;13.40;99.90;;;;;;5076169;28;20047;-52
2022/09/21 08:02:11;;;;;;;3.95;2.00;;;13.70;99.90;;;;;;5076194;28;20099;-52
2022/09/21 08:04:36;;;;;;;2.80;1.27;;;13.60;99.90;;;;;;5076078;28;20025;-53
2022/09/21 08:07:03;;;;;;;7.13;3.40;;;13.30;99.90;;;;;;5076280;28;20353;-52
2022/09/21 08:09:29;;;;;;;3.90;2.55;;;13.60;99.90;;;;;;5076257;28;20036;-52
2022/09/21 08:12:00;;;;;;;4.13;1.98;;;13.10;99.90;;;;;;5074783;28;20043;-51
2022/09/21 08:14:26;;;;;;;2.03;1.83;;;13.00;99.90;;;;;;5075770;28;20025;-52
2022/09/21 08:16:51;;;;;;;3.30;2.97;;;13.20;99.90;;;;;;5075565;28;20025;-52
2022/09/21 08:19:17;;;;;;;3.58;2.58;;;13.40;99.90;;;;;;5075875;28;20016;-52
2022/09/21 08:21:43;;;;;;;3.50;2.47;;;13.50;99.90;;;;;;5057177;28;20392;-52
2022/09/21 08:24:09;;;;;;;2.28;1.65;;;13.60;99.90;;;;;;5075803;28;20404;-51
2022/09/21 08:26:35;;;;;;;4.15;3.00;;;13.70;99.90;;;;;;5075962;28;20099;-52
2022/09/21 08:29:01;;;;;;;3.25;2.67;;;13.80;99.90;;;;;;5075592;28;20028;-53
2022/09/21 08:31:27;;;;;;;4.43;3.30;;;13.90;99.90;;;;;;5075595;28;20714;-53
2022/09/21 08:33:54;;;;;;;4.00;3.30;;;14.10;99.90;;;;;;5076008;28;20039;-53
2022/09/21 08:36:19;;;;;;;4.25;3.35;;;14.10;99.90;;;;;;5075262;28;20029;-53
2022/09/21 08:38:46;;;;;;;3.83;3.00;;;14.20;99.90;;;;;;5056845;28;20043;-53
2022/09/21 08:41:42;;;;;;;4.18;2.95;;;14.30;99.90;;;;;;5075443;28;20047;-53
2022/09/21 08:44:16;;;;;;;5.60;3.15;;;14.10;99.90;;;;;;5062190;28;20060;-52
2022/09/21 08:46:45;;;;;;;2.92;2.38;;;14.10;99.90;;;;;;5055086;28;20100;-52
2022/09/21 08:49:13;;;;;;;3.35;2.92;;;13.90;99.90;;;;;;5054822;28;20029;-52
2022/09/21 08:52:18;;;;;;;4.15;3.30;;;14.00;99.90;;;;;;5054802;28;20024;-52
2022/09/21 08:55:06;;;;;;;4.28;3.35;;;13.90;99.90;;;;;;5032650;28;20060;-53
2022/09/21 08:57:33;;;;;;;3.78;2.95;;;14.00;99.90;;;;;;5033075;28;20045;-53
2022/09/21 09:00:00;;;;;;;2.28;2.00;;;14.00;99.90;;;;;;5032780;28;20048;-52
2022/09/21 09:02:34;;;;;;;3.72;2.95;;;13.90;99.90;;;;;;4983469;28;20065;-52
2022/09/21 09:05:32;;;;;;;3.72;2.90;;;13.90;99.90;;;;;;5032640;28;20470;-53
2022/09/21 09:08:16;;;;;;;6.25;3.35;;;13.80;99.90;;;;;;5033014;28;20037;-52
2022/09/21 09:11:00;;;;;;;3.88;2.80;;;13.60;99.90;;;;;;5032496;28;20037;-53
2022/09/21 09:13:58;;;;;;;3.42;2.88;;;13.60;99.90;;;;;;5032561;28;20033;-52
2022/09/21 09:17:05;;;;;;;4.97;3.20;;;13.40;99.90;;;;;;5032564;28;20034;-53
2022/09/21 09:19:35;;;;;;;4.30;2.92;;;13.50;99.90;;;;;;4954395;29;20527;-52
2022/09/21 09:22:05;;;;;;;3.83;2.83;;;13.60;99.90;;;;;;4954747;28;20039;-52
2022/09/21 09:24:37;;;;;;;5.82;5.13;;;13.50;99.90;;;;;;4954316;29;20043;-53
2022/09/21 09:27:26;;;;;;;4.32;3.08;;;13.60;99.90;;;;;;4954526;29;20027;-52
2022/09/21 09:30:00;;;;;;;6.85;4.03;;;13.70;99.90;;;;;;4966361;28;20078;-53
2022/09/21 09:32:37;;;;;;;3.97;2.75;;;13.70;99.90;;;;;;4993073;28;20034;-53
2022/09/21 09:35:23;;;;;;;4.38;3.00;;;13.20;99.90;;;;;;4992680;28;20116;-53
2022/09/21 09:37:51;;;;;;;3.83;3.28;;;13.10;99.90;;;;;;4992451;28;20042;-52
2022/09/21 09:40:30;;;;;;;4.65;3.85;;;13.10;99.90;;;;;;4992850;28;20466;-52
2022/09/21 09:43:14;;;;;;;8.27;3.40;;;13.20;99.90;;;;;;4991616;28;20525;-53
2022/09/21 09:45:50;;;;;;;4.05;3.17;;;13.20;99.90;;;;;;4992517;28;20031;-52
2022/09/21 09:48:21;;;;;;;5.70;3.67;;;13.30;99.90;;;;;;4992362;28;20149;-52
2022/09/21 09:50:47;;;;;;;4.05;3.28;;;13.30;99.90;;;;;;4992315;28;20022;-52
2022/09/21 09:53:19;;;;;;;4.60;3.60;;;13.30;99.90;;;;;;4992588;28;20040;-51
2022/09/21 09:55:51;;;;;;;4.18;3.42;;;13.40;99.90;;;;;;5038317;28;20045;-52
2022/09/21 09:58:31;;;;;;;4.57;3.58;;;13.50;99.90;;;;;;5050068;28;20468;-52
2022/09/21 10:00:57;;;;;;;3.60;2.80;;;13.50;99.90;;;;;;5051631;28;20032;-53
2022/09/21 10:03:27;;;;;;;3.97;3.28;;;13.50;99.90;;;;;;5033945;28;20041;-53
2022/09/21 10:05:53;;;;;;;4.60;2.70;;;13.60;99.90;;;;;;5051325;28;20036;-53
2022/09/21 10:08:40;;;;;;;3.67;2.65;;;13.60;99.90;;;;;;5052980;28;20497;-53
2022/09/21 10:11:07;;;;;;;4.00;3.08;;;13.40;99.90;;;;;;5047302;28;20029;-52
2022/09/21 10:13:39;;;;;;;5.43;3.63;;;13.20;99.90;;;;;;5042974;28;20022;-52
2022/09/21 10:16:14;;;;;;;4.18;3.35;;;13.20;99.90;;;;;;5049660;28;20029;-52
2022/09/21 10:18:55;;;;;;;5.38;4.03;;;13.10;99.90;;;;;;5063642;28;20036;-53
2022/09/21 10:21:31;;;;;;;4.50;3.03;;;13.20;99.90;;;;;;5043303;28;20033;-52
2022/09/21 10:24:25;;;;;;;5.40;4.13;;;13.10;99.90;;;;;;5039679;28;20055;-52
2022/09/21 10:26:55;;;;;;;7.45;4.30;;;13.10;99.90;;;;;;4965400;28;20531;-52
2022/09/21 10:29:37;;;;;;;3.90;3.47;;;13.10;99.90;;;;;;4961013;28;20150;-52
2022/09/21 10:32:18;;;;;;;5.35;3.58;;;13.20;99.90;;;;;;4971407;28;20050;-52
2022/09/21 10:35:06;;;;;;;5.93;3.40;;;13.10;99.90;;;;;;4968397;28;20049;-52
2022/09/21 10:37:36;;;;;;;6.10;4.32;;;13.10;99.90;;;;;;4965235;28;20035;-52
2022/09/21 10:40:03;;;;;;;4.90;4.13;;;13.10;99.90;;;;;;4968717;28;20123;-52
2022/09/21 10:42:35;;;;;;;4.60;3.38;;;13.20;99.90;;;;;;4952491;29;20091;-52
2022/09/21 10:45:23;;;;;;;6.10;3.83;;;13.30;99.90;;;;;;4956599;28;20496;-52
2022/09/21 10:47:54;;;;;;;4.93;4.22;;;13.40;99.90;;;;;;4962491;28;20121;-52
2022/09/21 10:50:38;;;;;;;5.57;3.50;;;13.50;99.90;;;;;;4972412;28;20494;-52
2022/09/21 10:53:09;;;;;;;6.07;3.50;;;13.70;99.90;;;;;;4972586;28;20035;-52
2022/09/21 10:55:51;;;;;;;4.40;3.33;;;14.00;99.90;;;;;;4971936;28;20031;-52
2022/09/21 10:58:17;;;;;;;5.15;3.50;;;14.10;99.90;;;;;;4972372;28;20050;-53
2022/09/21 11:00:46;;;;;;;4.10;3.70;;;14.20;99.90;;;;;;4972343;28;20043;-52
2022/09/21 11:03:40;;;;;;;5.38;4.15;;;14.50;99.90;;;;;;4994317;28;20045;-52
2022/09/21 11:06:30;;;;;;;4.78;3.72;;;14.80;99.90;;;;;;5053161;28;20037;-52
2022/09/21 11:09:17;;;;;;;2.45;2.13;;;15.00;99.90;;;;;;5052618;28;20124;-52
2022/09/21 11:12:22;;;;;;;3.90;3.47;;;14.90;99.90;;;;;;5055921;28;20460;-52
2022/09/21 11:15:13;;;;;;;3.72;2.85;;;15.00;99.90;;;;;;5055866;28;20025;-52
2022/09/21 11:17:44;;;;;;;6.63;3.58;;;15.10;99.90;;;;;;5056906;28;20082;-52
2022/09/21 11:32:25;;;;;;;3.78;3.30;;;14.60;99.90;;;;;;5083161;27;20860;-54
2022/09/21 11:35:21;;;;;;;5.15;2.90;;;14.40;99.90;;;;;;5078453;28;20127;-53
2022/09/21 11:37:53;;;;;;;4.00;3.22;;;14.40;99.90;;;;;;5077637;28;20109;-54
2022/09/21 11:40:34;;;;;;;4.43;3.35;;;14.40;99.90;;;;;;5074325;28;20044;-54
2022/09/21 11:43:06;;;;;;;3.38;3.08;;;14.50;99.90;;;;;;5068363;28;20135;-54
2022/09/21 11:46:08;;;;;;;3.30;2.97;;;14.60;99.90;;;;;;5072808;28;20518;-54
2022/09/21 11:48:40;;;;;;;4.78;3.03;;;14.70;99.90;;;;;;5087273;28;20506;-54
2022/09/21 11:51:43;;;;;;;3.00;2.70;;;14.60;99.90;;;;;;5068497;28;20021;-53
2022/09/21 11:54:41;;;;;;;3.65;3.35;;;14.40;99.90;;;;;;5068943;28;20120;-53
2022/09/21 11:57:18;;;;;;;4.60;3.63;;;14.70;99.90;;;;;;5076090;28;20425;-53
2022/09/21 12:00:04;;;;;;;4.18;3.47;;;14.80;99.90;;;;;;5075581;28;20074;-54
2022/09/21 12:02:50;;;;;;;3.50;3.03;;;15.00;99.90;;;;;;5073556;28;20564;-53
2022/09/21 12:05:38;;;;;;;3.83;3.50;;;15.50;99.90;;;;;;5067881;28;20032;-53
2022/09/21 12:08:22;;;;;;;3.92;3.40;;;15.90;99.90;;;;;;5077028;28;20037;-52
2022/09/21 12:11:20;;;;;;;3.72;2.83;;;15.80;99.90;;;;;;5066067;28;20032;-54
2022/09/21 12:13:57;;;;;;;5.80;4.05;;;15.50;99.90;;;;;;5046604;28;20051;-53
2022/09/21 12:16:37;;;;;;;4.38;3.30;;;15.70;99.90;;;;;;5046213;28;20087;-54
2022/09/21 12:19:37;;;;;;;5.45;4.00;;;16.30;99.90;;;;;;5046530;28;20697;-53
2022/09/21 12:22:28;;;;;;;3.92;3.35;;;16.70;99.90;;;;;;5044872;28;20112;-53
2022/09/21 12:24:57;;;;;;;8.68;3.95;;;16.50;99.90;;;;;;5046997;28;20044;-53
2022/09/21 12:27:27;;;;;;;6.60;4.22;;;16.90;99.90;;;;;;5046301;28;20038;-53
2022/09/21 12:29:59;;;;;;;5.75;4.15;;;17.20;99.90;;;;;;5042919;28;20045;-51
2022/09/21 12:32:46;;;;;;;6.13;4.03;;;17.30;99.90;;;;;;5020946;28;20550;-52
2022/09/21 12:35:34;;;;;;;5.10;4.60;;;16.60;99.90;;;;;;5027753;28;20041;-51
2022/09/21 12:38:27;;;;;;;5.53;4.82;;;16.70;99.90;;;;;;5031629;28;20128;-52
2022/09/21 12:41:14;;;;;;;5.13;4.60;;;16.60;99.90;;;;;;5030845;28;20053;-51
2022/09/21 12:43:52;;;;;;;6.53;4.68;;;16.70;99.90;;;;;;5032517;28;20040;-52
2022/09/21 12:46:24;;;;;;;7.15;4.45;;;16.60;99.90;;;;;;5031024;28;20033;-52
2022/09/21 12:48:49;;;;;;;7.32;5.25;;;16.60;99.90;;;;;;5030503;28;20041;-53
2022/09/21 12:51:31;;;;;;;6.63;4.22;;;16.60;99.90;;;;;;5074779;28;20441;-52
2022/09/21 12:54:07;;;;;;;5.07;4.57;;;16.40;99.90;;;;;;5063920;28;20043;-52
2022/09/21 12:56:54;;;;;;;5.60;5.10;;;16.70;99.90;;;;;;5053421;28;20543;-51
2022/09/21 13:00:05;;;;;;;5.38;4.85;;;16.80;99.90;;;;;;5056236;28;20460;-52
2022/09/21 13:02:42;;;;;;;5.97;4.88;;;16.70;99.90;;;;;;5006603;28;20081;-53
2022/09/21 13:05:31;;;;;;;5.63;4.40;;;;;;;;;;5012555;28;20521;-52
2022/09/21 13:08:09;;;;;;;5.43;4.50;;;17.50;99.90;;;;;;4970524;28;20047;-52
2022/09/21 13:11:00;;;;;;;5.38;4.88;;;17.60;99.90;;;;;;4970880;28;20054;-53
2022/09/21 13:13:37;;;;;;;5.70;4.53;;;17.60;99.90;;;;;;4971756;28;20126;-52
2022/09/21 13:16:05;;;;;;;9.57;6.22;;;17.00;99.90;;;;;;4986512;28;20081;-52
2022/09/21 13:18:39;;;;;;;6.60;6.00;;;16.50;99.90;;;;;;4972754;28;20082;-52
2022/09/21 13:21:18;;;;;;;5.82;5.07;;;;;;;;;;4971198;28;20572;-52
2022/09/21 13:23:59;;;;;;;6.80;5.22;;;17.30;99.90;;;;;;4971271;28;20086;-52
2022/09/21 13:26:40;;;;;;;4.55;3.78;;;17.90;99.90;;;;;;4971391;28;20528;-52
2022/09/21 13:29:27;;;;;;;6.65;3.97;;;18.00;99.90;;;;;;4972076;28;20054;-52
2022/09/21 13:31:58;;;;;;;4.25;3.85;;;18.50;99.90;;;;;;4986912;28;20517;-52
2022/09/21 13:34:27;;;;;;;4.18;3.78;;;18.70;99.90;;;;;;4971652;28;20025;-51
2022/09/21 13:37:14;;;;;;;5.10;3.50;;;19.40;99.90;;;;;;4972664;28;20127;-52
2022/09/21 13:40:02;;;;;;;4.20;3.80;;;19.40;99.90;;;;;;5013863;28;20037;-52
2022/09/21 13:42:33;;;;;;;5.22;4.10;;;19.40;99.90;;;;;;5031602;28;20121;-51
2022/09/21 13:45:00;;;;;;;3.97;3.50;;;19.40;99.90;;;;;;5052538;28;20052;-52
2022/09/21 13:47:33;;;;;;;4.28;3.17;;;;;;;;;;5061338;28;20028;-52
2022/09/21 13:50:03;;;;;;;4.15;3.63;;;19.00;99.90;;;;;;5051414;28;20021;-52
2022/09/21 13:52:51;;;;;;;4.93;3.75;;;19.20;99.90;;;;;;5069948;28;20041;-51
2022/09/21 13:55:17;;;;;;;3.35;2.05;;;;;;;;;;5062524;28;20044;-52
2022/09/21 13:57:48;;;;;;;3.10;1.95;;;;;;;;;;5062599;28;20109;-52
2022/09/21 14:00:17;;;;;;;2.47;1.30;;;17.20;99.90;;;;;;5054006;28;20528;-52
2022/09/21 14:03:06;;;;;;;3.63;1.65;;;16.20;99.90;;;;;;5060848;28;20032;-52
2022/09/21 14:05:45;;;;;;;4.43;3.00;;;15.40;99.90;;;;;;5059736;28;20033;-52
2022/09/21 14:08:14;;;;;;;7.70;3.20;;;;;;;;;;5056315;28;20120;-52
2022/09/21 14:11:00;;;;;;;10.85;6.35;;;14.70;99.90;;;;;;5054711;28;20483;-52
2022/09/21 14:13:31;;;;;;;9.00;6.25;;;14.80;99.90;;;;;;5061598;28;20029;-52
2022/09/21 14:16:32;;;;;;;10.52;4.60;;;14.70;99.90;;;;;;5077055;28;20056;-52
2022/09/21 14:18:59;;;;;;;6.13;4.18;;;14.90;99.90;;;;;;5054484;28;20041;-52
2022/09/21 14:21:25;;;;;;;7.65;3.88;;;15.00;99.90;;;;;;5055066;28;20033;-52
2022/09/21 14:24:06;;;;;;;10.27;5.75;;;15.10;99.90;;;;;;5061005;28;20029;-52
2022/09/21 14:26:34;;;;;;;10.18;7.53;;;15.20;99.90;;;;;;5059667;28;20139;-51
2022/09/21 14:29:35;;;;;;;11.50;7.95;;;15.30;99.90;;;;;;5057078;28;20033;-51
2022/09/21 14:32:04;;;;;;;12.55;7.65;;;15.50;99.90;;;;;;5061604;28;20087;-52
2022/09/21 14:34:35;;;;;;;12.40;9.25;;;15.60;99.90;;;;;;5067508;28;20039;-52
2022/09/21 14:37:08;;;;;;;13.65;10.90;;;15.80;99.90;;;;;;5055802;28;20480;-51
2022/09/21 14:39:40;;;;;;;17.95;14.57;;;15.90;99.90;;;;;;5061750;28;20062;-52
2022/09/21 14:42:18;;;;;;;15.13;12.15;;;16.00;99.90;;;;;;5067276;28;20492;-52
2022/09/21 14:44:50;;;;;;;22.23;16.50;;;16.20;99.90;;;;;;5056294;28;20029;-52
2022/09/21 14:47:19;;;;;;;23.38;19.00;;;16.40;99.90;;;;;;5055414;28;20033;-52
2022/09/21 14:50:16;;;;;;;24.48;19.45;;;16.70;99.90;;;;;;5061516;28;20033;-52
2022/09/21 14:53:01;;;;;;;17.98;14.35;;;;;;;;;;5050009;28;20464;-52
2022/09/21 14:55:53;;;;;;;16.40;13.02;;;16.70;99.90;;;;;;5066058;28;20024;-52
2022/09/21 14:58:26;;;;;;;15.60;13.57;;;16.80;99.90;;;;;;5057498;28;20029;-52
2022/09/21 15:00:53;;;;;;;18.02;13.88;;;16.70;99.90;;;;;;5062681;28;20032;-52
2022/09/21 15:03:29;;;;;;;17.10;14.23;;;16.60;99.90;;;;;;5054339;28;20040;-52
2022/09/21 15:13:00;;;;;;;13.80;11.15;;;16.40;99.90;;;;;;5061251;28;20059;-51
2022/09/21 15:15:45;;;;;;;31.50;17.95;;;16.40;99.90;;;;;;4992095;28;20417;-52
2022/09/21 15:18:19;;;;;;;15.23;8.07;;;16.40;99.90;;;;;;5000607;28;20109;-52
2022/09/21 15:21:00;;;;;;;4.38;3.30;;;16.70;99.90;;;;;;4989016;28;20056;-52
2022/09/21 15:23:28;;;;;;;5.43;3.42;;;16.80;99.90;;;;;;4994896;28;20030;-52
2022/09/21 15:25:58;;;;;;;6.03;4.18;;;16.90;99.90;;;;;;4995416;28;20038;-52
2022/09/21 15:28:26;;;;;;;5.30;3.80;;;;;;;;;;4993323;28;20054;-52
2022/09/21 15:30:56;;;;;;;3.92;2.88;;;16.70;99.90;;;;;;5022184;28;20088;-52
2022/09/21 15:33:22;;;;;;;5.60;3.17;;;16.60;99.90;;;;;;4986211;28;20042;-52
2022/09/21 15:35:48;;;;;;;6.88;4.80;;;16.50;99.90;;;;;;5018377;28;20041;-51
2022/09/21 15:38:32;;;;;;;8.48;4.95;;;16.40;99.90;;;;;;5017169;28;20046;-52
2022/09/21 15:40:58;;;;;;;5.40;4.30;;;16.10;99.90;;;;;;5013377;28;20053;-52